createdAt,value
2018-12-30T00:11:47.341Z,99326.77
2018-12-30T00:16:05.195Z,99338.92
2018-12-30T00:20:30.253Z,99352.31
2018-12-30T00:24:49.747Z,99370.23
2018-12-30T00:29:14.772Z,99374.38
2018-12-30T00:33:30.677Z,99364.66
2018-12-30T00:42:32.826Z,99330.30
2018-12-30T00:46:57.853Z,99321.43
2018-12-30T00:51:36.788Z,99304.54
2018-12-30T00:55:56.290Z,99309.73
2018-12-30T01:00:14.334Z,99326.20
2018-12-30T01:04:39.453Z,99326.07
2018-12-30T01:08:57.001Z,99324.13
2018-12-30T01:13:15.132Z,99331.09
2018-12-30T01:17:41.137Z,99338.61
2018-12-30T01:22:20.378Z,99332.68
2018-12-30T01:31:28.501Z,99349.81
2018-12-30T01:35:53.531Z,99340.61
2018-12-30T01:40:31.992Z,99355.28
2018-12-30T01:44:57.018Z,99357.80
2018-12-30T01:49:25.374Z,99367.50
2018-12-30T01:58:32.348Z,99363.74
2018-12-30T02:02:54.178Z,99360.03
2018-12-30T02:07:12.204Z,99357.09
2018-12-30T02:11:37.251Z,99368.80
2018-12-30T02:15:53.221Z,99375.77
2018-12-30T02:20:18.281Z,99374.52
2018-12-30T02:24:55.059Z,99394.75
2018-12-30T02:34:02.424Z,99412.12
2018-12-30T02:38:27.490Z,99420.34
2018-12-30T02:42:43.555Z,99404.12
2018-12-30T02:52:04.266Z,99422.46
2018-12-30T02:56:22.091Z,99421.05
2018-12-30T03:05:21.861Z,99427.86
2018-12-30T03:09:39.476Z,99420.17
2018-12-30T03:13:57.316Z,99424.63
2018-12-30T03:18:15.318Z,99429.56
2018-12-30T03:22:40.359Z,99435.08
2018-12-30T03:26:56.314Z,99431.78
2018-12-30T03:31:21.345Z,99437.13
2018-12-30T03:35:38.899Z,99439.14
2018-12-30T03:40:15.155Z,99432.59
2018-12-30T03:49:16.896Z,99432.06
2018-12-30T03:53:34.483Z,99449.52
2018-12-30T03:57:59.591Z,99437.15
2018-12-30T04:02:17.112Z,99432.53
2018-12-30T04:06:37.610Z,99416.64
2018-12-30T04:11:01.446Z,99424.72
2018-12-30T04:15:17.448Z,99424.11
2018-12-30T04:19:42.543Z,99420.60
2018-12-30T04:24:00.051Z,99428.27
2018-12-30T04:28:25.048Z,99436.98
2018-12-30T04:32:41.022Z,99440.85
2018-12-30T04:37:06.048Z,99448.62
2018-12-30T04:41:23.665Z,99451.17
2018-12-30T04:45:48.687Z,99460.11
2018-12-30T04:50:05.764Z,99466.59
2018-12-30T04:54:30.785Z,99465.08
2018-12-30T04:58:48.437Z,99455.50
2018-12-30T05:07:55.026Z,99465.78
2018-12-30T05:12:20.059Z,99468.59
2018-12-30T05:16:37.624Z,99461.78
2018-12-30T05:21:02.634Z,99483.80
2018-12-30T05:25:20.541Z,99483.14
2018-12-30T05:29:45.569Z,99479.81
2018-12-30T05:34:01.459Z,99482.33
2018-12-30T05:38:26.495Z,99492.98
2018-12-30T05:42:44.119Z,99492.02
2018-12-30T05:47:01.580Z,99506.47
2018-12-30T05:51:26.610Z,99523.13
2018-12-30T05:55:44.195Z,99527.06
2018-12-30T06:00:09.384Z,99527.19
2018-12-30T06:04:27.142Z,99538.55
2018-12-30T06:08:45.248Z,99537.30
2018-12-30T06:13:03.128Z,99546.30
2018-12-30T06:17:28.172Z,99567.84
2018-12-30T06:21:46.142Z,99568.17
2018-12-30T06:26:11.158Z,99576.55
2018-12-30T06:30:27.120Z,99575.00
2018-12-30T06:34:52.147Z,99581.20
2018-12-30T06:39:09.923Z,99591.30
2018-12-30T06:43:34.956Z,99610.48
2018-12-30T06:47:52.758Z,99613.00
2018-12-30T06:52:17.777Z,99617.84
2018-12-30T06:56:35.620Z,99625.24
2018-12-30T07:01:00.663Z,99624.62
2018-12-30T07:05:19.276Z,99631.38
2018-12-30T07:09:36.843Z,99640.48
2018-12-30T07:14:01.857Z,99640.94
2018-12-30T07:18:19.659Z,99653.14
2018-12-30T07:22:45.652Z,99656.41
2018-12-30T07:27:03.357Z,99667.88
2018-12-30T07:36:31.347Z,99677.66
2018-12-30T07:40:47.327Z,99688.70
2018-12-30T07:45:12.347Z,99688.23
2018-12-30T07:49:30.481Z,99695.08
2018-12-30T07:53:55.564Z,99693.46
2018-12-30T07:58:15.489Z,99702.98
2018-12-30T08:02:33.720Z,99702.05
2018-12-30T08:06:51.507Z,99705.80
2018-12-30T08:15:53.358Z,99707.48
2018-12-30T08:20:11.140Z,99705.23
2018-12-30T08:34:10.603Z,99699.77
2018-12-30T08:38:28.697Z,99699.03
2018-12-30T08:47:30.542Z,99713.77
2018-12-30T08:51:48.678Z,99707.55
2018-12-30T09:00:50.013Z,99718.41
2018-12-30T09:05:08.094Z,99723.59
2018-12-30T09:09:33.133Z,99743.88
2018-12-30T09:13:50.825Z,99751.28
2018-12-30T09:18:15.861Z,99759.69
2018-12-30T09:22:33.982Z,99779.47
2018-12-30T09:26:59.979Z,99778.92
2018-12-30T09:31:18.325Z,99775.46
2018-12-30T09:35:43.367Z,99785.06
2018-12-30T09:40:01.198Z,99792.34
2018-12-30T09:44:26.231Z,99791.82
2018-12-30T09:48:47.527Z,99784.16
2018-12-30T09:53:14.188Z,99793.26
2018-12-30T09:57:32.033Z,99801.61
2018-12-30T10:01:57.077Z,99800.79
2018-12-30T10:06:14.599Z,99802.75
2018-12-30T10:10:39.661Z,99794.47
2018-12-30T10:14:55.615Z,99796.36
2018-12-30T10:24:02.696Z,99802.90
2018-12-30T10:28:27.799Z,99806.73
2018-12-30T10:32:45.954Z,99816.42
2018-12-30T10:37:10.983Z,99798.70
2018-12-30T10:41:28.720Z,99800.95
2018-12-30T10:45:53.760Z,99794.30
2018-12-30T10:50:11.417Z,99805.48
2018-12-30T10:54:29.089Z,99795.39
2018-12-30T10:58:54.122Z,99798.91
2018-12-30T11:03:14.064Z,99790.88
2018-12-30T11:07:31.504Z,99800.69
2018-12-30T11:11:56.572Z,99804.24
2018-12-30T11:16:14.752Z,99802.63
2018-12-30T11:20:39.803Z,99798.80
2018-12-30T11:24:57.780Z,99791.51
2018-12-30T11:34:06.828Z,99771.21
2018-12-30T11:38:24.828Z,99771.66
2018-12-30T11:42:42.530Z,99767.80
2018-12-30T11:47:07.614Z,99763.91
2018-12-30T11:51:25.752Z,99766.30
2018-12-30T11:55:50.794Z,99764.33
2018-12-30T12:00:09.441Z,99771.08
2018-12-30T12:04:34.475Z,99774.67
2018-12-30T13:07:48.815Z,99779.05
2018-12-30T13:23:11.750Z,99790.98
2018-12-30T13:27:29.602Z,99793.95
2018-12-30T13:32:15.434Z,99798.22
2018-12-30T13:36:33.299Z,99791.55
2018-12-30T13:40:38.984Z,99789.78
2018-12-30T13:44:44.688Z,99787.59
2018-12-30T13:48:50.380Z,99803.11
2018-12-30T13:52:56.132Z,99809.73
2018-12-30T13:57:01.793Z,99798.32
2018-12-30T14:01:07.555Z,99792.47
2018-12-30T14:05:49.264Z,99791.89
2018-12-30T14:09:54.942Z,99793.89
2018-12-30T14:14:00.638Z,99785.06
2018-12-30T14:18:06.339Z,99778.36
2018-12-30T14:22:12.087Z,99768.31
2018-12-30T14:26:17.784Z,99769.17
2018-12-30T14:30:23.463Z,99778.98
2018-12-30T14:34:29.173Z,99790.96
2018-12-30T14:38:34.870Z,99797.47
2018-12-30T14:42:40.576Z,99800.69
2018-12-30T14:46:46.254Z,99796.97
2018-12-30T14:50:52.000Z,99803.58
2018-12-30T14:55:03.549Z,99811.53
2018-12-30T14:59:05.064Z,99816.06
2018-12-30T15:03:10.767Z,99825.53
2018-12-30T15:07:16.464Z,99820.93
2018-12-30T15:11:22.240Z,99818.47
2018-12-30T15:15:27.997Z,99823.95
2018-12-30T15:19:51.826Z,99838.76
2018-12-30T15:23:57.561Z,99840.54
2018-12-30T15:28:03.387Z,99851.61
2018-12-30T15:32:09.065Z,99846.39
2018-12-30T15:36:14.867Z,99845.12
2018-12-30T15:40:50.663Z,99847.95
2018-12-30T15:44:56.355Z,99836.25
2018-12-30T15:49:02.096Z,99835.85
2018-12-30T15:53:13.470Z,99830.12
2018-12-30T15:57:19.167Z,99828.27
2018-12-30T16:01:24.886Z,99839.80
2018-12-30T16:05:30.574Z,99827.70
2018-12-30T16:09:36.337Z,99840.81
2018-12-30T16:13:42.030Z,99858.39
2018-12-30T16:17:47.720Z,99876.55
2018-12-30T16:32:36.350Z,99853.78
2018-12-30T16:36:42.087Z,99855.55
2018-12-30T16:40:50.456Z,99861.68
2018-12-30T16:44:56.200Z,99847.22
2018-12-30T16:49:50.149Z,99842.80
2018-12-30T16:54:49.823Z,99842.63
2018-12-30T16:58:55.523Z,99830.49
2018-12-30T17:03:01.216Z,99826.33
2018-12-30T17:07:07.001Z,99816.21
2018-12-30T17:11:12.665Z,99809.48
2018-12-30T17:15:18.344Z,99826.33
2018-12-30T17:19:24.033Z,99835.19
2018-12-30T17:23:29.725Z,99833.44
2018-12-30T17:27:35.388Z,99828.84
2018-12-30T17:31:41.071Z,99831.55
2018-12-30T17:35:50.499Z,99834.47
2018-12-30T17:39:56.179Z,99839.35
2018-12-30T17:44:01.863Z,99849.70
2018-12-30T17:48:07.581Z,99852.12
2018-12-30T17:52:13.274Z,99838.66
2018-12-30T17:56:19.008Z,99854.63
2018-12-30T18:00:24.697Z,99848.87
2018-12-30T18:04:30.372Z,99830.84
2018-12-30T18:08:36.062Z,99838.67
2018-12-30T18:12:41.760Z,99846.27
2018-12-30T18:16:47.462Z,99852.12
2018-12-30T18:20:53.155Z,99848.41
2018-12-30T18:24:58.812Z,99842.78
2018-12-30T18:29:04.563Z,99845.97
2018-12-30T18:33:11.227Z,99847.63
2018-12-30T18:37:16.928Z,99854.52
2018-12-30T18:41:23.624Z,99844.09
2018-12-30T18:45:29.252Z,99838.76
2018-12-30T18:49:34.939Z,99816.69
2018-12-30T18:53:40.626Z,99819.36
2018-12-30T18:57:46.307Z,99825.30
2018-12-30T19:01:52.061Z,99836.78
2018-12-30T19:05:57.748Z,99846.14
2018-12-30T19:10:03.560Z,99841.00
2018-12-30T19:14:09.230Z,99846.48
2018-12-30T19:18:14.904Z,99838.97
2018-12-30T19:22:20.610Z,99838.24
2018-12-30T19:26:26.322Z,99828.75
2018-12-30T19:30:32.049Z,99833.55
2018-12-30T19:34:37.699Z,99828.23
2018-12-30T19:38:43.370Z,99820.41
2018-12-30T19:42:49.180Z,99827.09
2018-12-30T19:46:54.880Z,99820.98
2018-12-30T19:51:00.552Z,99827.51
2018-12-30T19:55:07.172Z,99825.42
2018-12-30T19:59:33.163Z,99814.66
2018-12-30T20:03:50.690Z,99811.02
2018-12-30T20:08:08.319Z,99811.49
2018-12-30T20:12:26.395Z,99822.05
2018-12-30T20:16:51.496Z,99826.97
2018-12-30T20:21:09.050Z,99826.04
2018-12-30T20:25:35.425Z,99832.23
2018-12-30T20:30:13.121Z,99831.77
2018-12-30T20:34:38.146Z,99820.14
2018-12-30T21:01:33.936Z,99808.51
2018-12-30T21:05:59.001Z,99809.09
2018-12-30T21:10:16.848Z,99802.16
2018-12-30T21:14:41.867Z,99794.17
2018-12-30T21:18:59.585Z,99789.72
2018-12-30T21:23:24.626Z,99784.72
2018-12-30T21:28:08.769Z,99779.60
2018-12-30T21:32:53.111Z,99794.32
2018-12-30T21:37:11.115Z,99791.26
2018-12-30T21:47:08.607Z,99783.86
2018-12-30T21:51:52.967Z,99771.58
2018-12-30T21:56:10.710Z,99772.58
2018-12-30T22:15:12.335Z,99772.42
2018-12-30T22:19:28.260Z,99760.95
2018-12-30T22:28:29.901Z,99757.90
2018-12-30T22:32:50.680Z,99757.16
2018-12-30T22:37:54.270Z,99748.09
2018-12-30T22:42:51.516Z,99752.16
2018-12-30T22:47:16.569Z,99749.25
2018-12-30T22:51:34.640Z,99753.02
2018-12-30T23:00:56.219Z,99752.28
2018-12-30T23:05:01.980Z,99741.59
2018-12-30T23:09:08.182Z,99736.73
2018-12-30T23:13:13.875Z,99734.61
2018-12-30T23:17:19.541Z,99741.23
2018-12-30T23:21:25.286Z,99731.58
2018-12-30T23:25:51.973Z,99743.94
2018-12-30T23:29:57.671Z,99728.80
2018-12-30T23:34:03.368Z,99730.69
2018-12-30T23:38:09.065Z,99733.20
2018-12-30T23:42:14.742Z,99731.67
2018-12-30T23:46:20.409Z,99751.98
2018-12-30T23:50:26.211Z,99749.06
2018-12-30T23:54:31.888Z,99749.25
2018-12-30T23:58:37.545Z,99735.34
